Terminal Aerodrome Forecast
Issued by NWS

Home | Current Version | Previous Version | Text Only | Print | Product List | Glossary On
Versions: 1 2 3 4 5 6 7 8 9 10 11 12 13 14
000
FTAK31 PAFA 300528
TAFAOT
TAF
PAOT 300528Z 3006/0106 09006KT P6SM SCT040 BKN100 BKN200
     FM300900 09006KT P6SM BKN040 OVC100
     FM301800 06006KT P6SM BKN040 BKN100
     FM302100 03006KT P6SM SCT050 BKN100
     FM010000 36006KT P6SM SCT050 SCT100 BKN200=

USA.gov is the U.S. government's official web portal to all federal, state and local government web resources and services.